Aldrich, MN

6:28 PM CDT on April 19, 2015 (GMT -0500)
Wadena Municipal | | Change Station
CLOSE
Current Station
Airport
Location: Wadena,
Elevation: 1371 ft
Nearby Weather Stations

Elev 1371 ft 46.45 °N, 95.21 °W | Updated 14 minutes ago

Overcast
Overcast
43 °F
Feels Like 34 °F
N
20
Wind Variable Wind from NW
Gusts 28 mph

Today
High -- | Low -- °F
--% Chance of Precip.
Yesterday
High -- | Low -- °F
Precip. -- in
6:26 AM 8:12 PM
New Moon, 2% visible
Pressure 29.65 in
Visibility 10.0 miles
Clouds Mostly Cloudy 2000 ft
Overcast 2600 ft
Windchill 34 °F
Dew Point 37 °F
Humidity 81%
Rainfall 0.88 in
Snow Depth Not available.
UV 0 out of 12
Pollen 3.20 out of 12
Air Quality Not available.
Flu Activity Local Activity
METAR KADC 192314Z AUTO 31017G24KT 10SM BKN020 OVC026 06/03 A2965 RMK AO2

More Conditions Fewer Conditions

Pressure 29.65 in
Visibility 10.0 miles
Clouds Mostly Cloudy 2000 ft
Overcast 2600 ft
Windchill 34 °F
Dew Point 37 °F
Humidity 81%
Rainfall 0.88 in
Snow Depth Not available.
UV 0 out of 12
Pollen 3.20 out of 12
Air Quality Not available.
Flu Activity Local Activity
METAR KADC 192314Z AUTO 31017G24KT 10SM BKN020 OVC026 06/03 A2965 RMK AO2

More Conditions Fewer Conditions

10-Day Weather Forecast

Almanac

Astronomy

Apr. 19, 2015 Rise Set
Actual Time
Civil Twilight
Nautical Twilight
Astronomical Twilight
Moon
Length of Visible Light
Length of Day
Tomorrow will be .
, % of the Moon is Illuminated

Today's Extremes

State Highs State Lows

Community

WunderPhotos

Upload Photos

1,815,030 photos uploaded!

WunderBlogs® & News

Nearby

Air Quality

  Air Quality AQ Index Pollutant
Not available.

Snow Depth

Station Depth Elevation

Earthquake Activity

City Distance Mag. Time & Date
Minimum magnitude displayed is 2.5.

Coastal Water Temperatures

Place Temperature

Stations

Nearby Weather Stations

Station Location Temp. Windchill Dew Point Humidity Wind Precip. Elev Updated Type